Terminal Aerodrome Forecast
Issued by NWS Mt. Holly, NJ

Home | Current Version | Previous Version | Text Only | Print | Product List | Glossary On
Versions: 1 2 3 4 5 6 7 8 9 10 11 12 13 14 15 16 17 18 19 20
000
FTUS41 KPHI 300532 CCA
TAFACY
TAF COR
KACY 300532Z 3006/3106 13005KT P6SM OVC008
      TEMPO 3009/3012 2SM -DZ BR OVC003
     FM301600 13010KT 4SM -SHRA BR OVC008
     FM301900 14007KT 4SM BR OVC008
     FM310000 14006KT 4SM BR OVC005 PROB30 3101/3105 2SM -SHRA
     FM310500 11005KT 1SM BR OVC003=

USA.gov is the U.S. government's official web portal to all federal, state and local government web resources and services.